createdAt,value
2023-05-05T00:01:09.362Z,14.50
2023-05-05T00:03:36.294Z,14.50
2023-05-05T00:06:03.624Z,14.40
2023-05-05T00:08:30.327Z,14.30
2023-05-05T00:10:57.603Z,14.30
2023-05-05T00:13:24.692Z,14.30
2023-05-05T00:15:53.624Z,14.30
2023-05-05T00:18:21.049Z,14.30
2023-05-05T00:20:48.383Z,14.30
2023-05-05T00:23:16.330Z,14.30
2023-05-05T00:25:43.233Z,14.40
2023-05-05T00:28:10.313Z,14.40
2023-05-05T00:30:37.463Z,14.40
2023-05-05T00:33:04.485Z,14.40
2023-05-05T00:35:31.400Z,14.50
2023-05-05T00:37:58.198Z,14.50
2023-05-05T00:40:25.394Z,14.50
2023-05-05T00:42:52.516Z,14.50
2023-05-05T00:45:20.572Z,14.50
2023-05-05T00:47:56.932Z,14.60
2023-05-05T00:50:29.314Z,14.60
2023-05-05T00:53:03.945Z,14.60
2023-05-05T00:55:31.722Z,14.70
2023-05-05T00:58:00.290Z,14.70
2023-05-05T01:00:27.582Z,14.80
2023-05-05T01:02:54.510Z,14.80
2023-05-05T01:05:23.466Z,14.80
2023-05-05T01:08:04.061Z,14.90
2023-05-05T01:10:40.662Z,14.90
2023-05-05T01:13:28.200Z,15.00
2023-05-05T01:16:05.258Z,15.00
2023-05-05T01:18:53.109Z,14.90
2023-05-05T01:21:29.440Z,14.90
2023-05-05T01:24:11.048Z,14.80
2023-05-05T01:26:59.686Z,14.80
2023-05-05T01:29:41.446Z,14.80
2023-05-05T01:32:11.388Z,14.80
2023-05-05T01:34:45.257Z,14.80
2023-05-05T01:37:22.526Z,14.80
2023-05-05T01:39:57.382Z,14.80
2023-05-05T01:42:25.769Z,14.80
2023-05-05T01:44:54.202Z,14.80
2023-05-05T01:47:23.020Z,14.80
2023-05-05T01:49:50.903Z,14.80
2023-05-05T01:52:18.381Z,14.70
2023-05-05T01:54:46.228Z,14.80
2023-05-05T01:57:14.576Z,14.80
2023-05-05T01:59:41.630Z,14.90
2023-05-05T02:02:12.130Z,14.90
2023-05-05T02:04:43.656Z,14.90
2023-05-05T02:07:12.624Z,14.80
2023-05-05T02:09:40.684Z,14.80
2023-05-05T02:12:08.528Z,14.90
2023-05-05T02:14:36.953Z,14.90
2023-05-05T02:17:04.180Z,15.00
2023-05-05T02:19:36.167Z,14.90
2023-05-05T02:22:03.090Z,14.90
2023-05-05T02:24:30.091Z,15.00
2023-05-05T02:26:58.265Z,15.00
2023-05-05T02:29:34.342Z,14.90
2023-05-05T02:32:10.026Z,15.00
2023-05-05T02:34:39.771Z,14.90
2023-05-05T02:37:10.979Z,14.90
2023-05-05T02:39:58.817Z,14.90
2023-05-05T02:42:31.832Z,14.90
2023-05-05T02:45:01.937Z,14.90
2023-05-05T02:47:36.249Z,14.90
2023-05-05T02:50:05.225Z,14.90
2023-05-05T02:52:32.990Z,14.80
2023-05-05T02:55:00.344Z,14.80
2023-05-05T02:58:03.777Z,14.80
2023-05-05T03:01:01.111Z,14.80
2023-05-05T03:04:07.298Z,14.80
2023-05-05T03:06:41.030Z,14.70
2023-05-05T03:09:21.788Z,14.70
2023-05-05T03:11:53.589Z,14.70
2023-05-05T03:14:21.834Z,14.70
2023-05-05T03:16:49.860Z,14.70
2023-05-05T03:19:21.331Z,14.60
2023-05-05T03:21:48.567Z,14.60
2023-05-05T03:24:19.960Z,14.60
2023-05-05T03:26:48.118Z,14.70
2023-05-05T03:29:15.694Z,14.60
2023-05-05T03:31:42.540Z,14.60
2023-05-05T03:34:09.428Z,14.60
2023-05-05T03:36:36.747Z,14.60
2023-05-05T03:39:03.710Z,14.50
2023-05-05T03:41:30.591Z,14.50
2023-05-05T03:43:57.532Z,14.40
2023-05-05T03:46:24.370Z,14.40
2023-05-05T03:48:51.571Z,14.40
2023-05-05T03:51:18.375Z,14.40
2023-05-05T03:53:45.046Z,14.40
2023-05-05T03:56:11.718Z,14.40
2023-05-05T03:58:38.386Z,14.40
2023-05-05T04:01:05.201Z,14.40
2023-05-05T04:03:31.978Z,14.40
2023-05-05T04:05:58.729Z,14.40
2023-05-05T04:08:25.501Z,14.40
2023-05-05T04:10:52.340Z,14.30
2023-05-05T04:13:19.199Z,14.30
2023-05-05T04:15:46.601Z,14.40
2023-05-05T04:18:13.365Z,14.40
2023-05-05T04:20:40.305Z,14.40
2023-05-05T04:23:07.155Z,14.40
2023-05-05T04:25:34.156Z,14.50
2023-05-05T04:28:00.964Z,14.50
2023-05-05T04:30:27.704Z,14.60
2023-05-05T04:32:54.419Z,14.60
2023-05-05T04:35:21.200Z,14.60
2023-05-05T04:37:48.673Z,14.70
2023-05-05T04:40:15.497Z,14.70
2023-05-05T04:42:42.242Z,14.70
2023-05-05T04:45:09.665Z,14.80
2023-05-05T04:47:40.341Z,14.80
2023-05-05T04:50:08.696Z,14.90
2023-05-05T04:52:35.579Z,15.10
2023-05-05T04:55:02.487Z,15.20
2023-05-05T04:57:30.536Z,15.40
2023-05-05T04:59:57.340Z,15.40
2023-05-05T05:02:24.289Z,15.60
2023-05-05T05:04:51.005Z,15.60
2023-05-05T05:07:17.666Z,15.70
2023-05-05T05:09:44.350Z,15.80
2023-05-05T05:12:11.145Z,15.80
2023-05-05T05:14:38.639Z,15.80
2023-05-05T05:17:06.016Z,15.80
2023-05-05T05:19:32.784Z,15.80
2023-05-05T05:21:59.407Z,15.90
2023-05-05T05:24:26.246Z,16.00
2023-05-05T05:26:52.959Z,16.10
2023-05-05T05:29:20.434Z,16.30
2023-05-05T05:31:47.108Z,16.50
2023-05-05T05:34:13.901Z,16.50
2023-05-05T05:36:40.602Z,16.60
2023-05-05T05:39:07.400Z,16.70
2023-05-05T05:41:34.125Z,16.90
2023-05-05T05:44:00.935Z,17.00
2023-05-05T05:46:27.631Z,17.10
2023-05-05T05:48:54.307Z,17.10
2023-05-05T05:51:20.989Z,17.20
2023-05-05T05:53:47.718Z,17.40
2023-05-05T05:56:14.492Z,17.50
2023-05-05T05:58:42.296Z,17.60
2023-05-05T06:01:09.099Z,17.70
2023-05-05T06:03:36.037Z,17.70
2023-05-05T06:06:02.895Z,17.70
2023-05-05T06:08:29.636Z,17.60
2023-05-05T06:10:56.348Z,17.70
2023-05-05T06:13:23.138Z,17.60
2023-05-05T06:15:49.849Z,17.40
2023-05-05T06:18:16.682Z,17.30
2023-05-05T06:20:43.602Z,17.20
2023-05-05T06:23:10.268Z,17.30
2023-05-05T06:25:37.629Z,17.20
2023-05-05T06:28:05.494Z,17.10
2023-05-05T06:30:32.811Z,17.20
2023-05-05T06:32:59.726Z,17.30
2023-05-05T06:35:26.545Z,17.20
2023-05-05T06:37:53.212Z,17.30
2023-05-05T06:40:19.866Z,17.20
2023-05-05T06:42:46.587Z,17.20
2023-05-05T06:45:13.451Z,17.10
2023-05-05T06:47:40.159Z,17.20
2023-05-05T06:50:08.812Z,17.10
2023-05-05T06:52:35.966Z,17.10
2023-05-05T06:55:03.655Z,17.10
2023-05-05T06:57:30.418Z,17.00
2023-05-05T06:59:57.183Z,17.10
2023-05-05T07:02:25.991Z,17.10
2023-05-05T07:04:55.244Z,17.20
2023-05-05T07:07:22.017Z,17.20
2023-05-05T07:09:48.771Z,17.40
2023-05-05T07:12:15.508Z,17.40
2023-05-05T07:14:42.152Z,17.40
2023-05-05T07:17:08.816Z,17.40
2023-05-05T07:19:35.530Z,17.30
2023-05-05T07:22:02.305Z,17.30
2023-05-05T07:24:29.071Z,17.40
2023-05-05T07:26:55.777Z,17.40
2023-05-05T07:29:22.395Z,17.50
2023-05-05T07:31:49.103Z,17.60
2023-05-05T07:34:15.918Z,17.80
2023-05-05T07:36:42.569Z,17.90
2023-05-05T07:39:09.285Z,18.20
2023-05-05T07:41:36.227Z,18.30
2023-05-05T07:44:02.859Z,18.40
2023-05-05T07:46:29.747Z,18.50
2023-05-05T07:48:56.399Z,18.30
2023-05-05T07:51:23.118Z,18.40
2023-05-05T07:53:49.847Z,18.50
2023-05-05T07:56:16.534Z,18.70
2023-05-05T07:58:43.168Z,18.70
2023-05-05T08:01:11.206Z,19.00
2023-05-05T08:03:38.264Z,19.20
2023-05-05T08:06:12.055Z,19.40
2023-05-05T08:08:38.832Z,19.60
2023-05-05T08:11:06.645Z,19.60
2023-05-05T08:13:33.987Z,20.00
2023-05-05T08:16:00.864Z,20.30
2023-05-05T08:18:27.677Z,20.30
2023-05-05T08:20:54.670Z,20.40
2023-05-05T08:23:21.843Z,20.20
2023-05-05T08:25:48.557Z,20.30
2023-05-05T08:28:15.210Z,20.40
2023-05-05T08:30:42.762Z,20.50
2023-05-05T08:33:09.529Z,20.60
2023-05-05T08:35:36.363Z,20.90
2023-05-05T08:38:03.038Z,21.00
2023-05-05T08:40:36.462Z,21.10
2023-05-05T08:43:03.570Z,21.10
2023-05-05T08:45:30.798Z,21.20
2023-05-05T08:48:00.418Z,20.80
2023-05-05T08:50:29.211Z,20.70
2023-05-05T08:53:11.894Z,20.90
2023-05-05T08:55:49.777Z,21.00
2023-05-05T08:58:18.893Z,21.10
2023-05-05T09:00:46.193Z,21.20
2023-05-05T09:03:13.289Z,21.00
2023-05-05T09:05:42.017Z,21.00
2023-05-05T09:08:10.263Z,20.80
2023-05-05T09:10:40.755Z,20.40
2023-05-05T09:13:07.616Z,20.50
2023-05-05T09:15:34.689Z,20.40
2023-05-05T09:18:02.134Z,20.40
2023-05-05T09:20:36.881Z,20.40
2023-05-05T09:23:15.415Z,20.20
2023-05-05T09:25:45.859Z,20.30
2023-05-05T09:28:16.997Z,20.10
2023-05-05T09:30:45.937Z,19.90
2023-05-05T09:33:13.651Z,19.80
2023-05-05T09:35:58.776Z,19.80
2023-05-05T09:38:25.727Z,19.60
2023-05-05T09:40:53.462Z,19.60
2023-05-05T09:43:24.503Z,19.40
2023-05-05T09:45:51.642Z,19.20
2023-05-05T09:48:31.929Z,19.00
2023-05-05T09:50:59.230Z,18.90
2023-05-05T09:53:26.601Z,18.80
2023-05-05T09:55:57.456Z,18.90
2023-05-05T09:58:31.190Z,18.90
2023-05-05T10:00:58.990Z,18.80
2023-05-05T10:03:26.092Z,19.00
2023-05-05T10:05:57.691Z,18.90
2023-05-05T10:08:30.358Z,19.10
2023-05-05T10:11:06.333Z,19.20
2023-05-05T10:13:37.736Z,19.30
2023-05-05T10:16:07.400Z,19.50
2023-05-05T10:18:35.469Z,19.50
2023-05-05T10:21:03.975Z,19.70
2023-05-05T10:23:57.410Z,19.80
2023-05-05T10:26:26.669Z,19.80
2023-05-05T10:29:01.339Z,19.70
2023-05-05T10:31:41.938Z,19.90
2023-05-05T10:34:18.153Z,19.90
2023-05-05T10:36:45.115Z,19.90
2023-05-05T10:39:11.873Z,20.00
2023-05-05T10:41:38.946Z,20.00
2023-05-05T10:44:06.723Z,20.10
2023-05-05T10:46:33.684Z,20.30
2023-05-05T10:49:07.250Z,20.60
2023-05-05T10:51:41.039Z,20.90
2023-05-05T10:54:17.273Z,21.40
2023-05-05T10:56:44.070Z,21.60
2023-05-05T10:59:36.164Z,21.90
2023-05-05T11:02:21.894Z,21.90
2023-05-05T11:05:17.847Z,22.60
2023-05-05T11:07:46.534Z,22.90
2023-05-05T11:10:15.362Z,22.90
2023-05-05T11:13:02.360Z,22.70
2023-05-05T11:15:29.330Z,23.10
2023-05-05T11:18:00.810Z,23.30
2023-05-05T11:20:39.633Z,23.40
2023-05-05T11:23:06.547Z,22.80
2023-05-05T11:25:36.577Z,22.70
2023-05-05T11:28:13.833Z,22.60
2023-05-05T11:30:59.513Z,23.00
2023-05-05T11:33:30.679Z,22.70
2023-05-05T11:36:05.080Z,23.10
2023-05-05T11:38:39.239Z,23.20
2023-05-05T11:41:34.576Z,22.60
2023-05-05T11:44:17.841Z,22.60
2023-05-05T11:46:54.350Z,22.60
2023-05-05T11:49:28.807Z,22.30
2023-05-05T11:52:01.008Z,22.40
2023-05-05T11:54:28.065Z,22.00
2023-05-05T11:56:59.385Z,22.30
2023-05-05T11:59:26.189Z,22.10
2023-05-05T12:01:53.066Z,22.00
2023-05-05T12:04:20.571Z,21.30
2023-05-05T12:06:48.857Z,21.00
2023-05-05T12:09:20.518Z,21.00
2023-05-05T12:11:54.588Z,20.80
2023-05-05T12:14:22.240Z,20.50
2023-05-05T12:16:55.905Z,20.30
2023-05-05T12:19:23.346Z,20.20
2023-05-05T12:21:50.344Z,20.30
2023-05-05T12:24:17.188Z,20.70
2023-05-05T12:26:44.004Z,21.00
2023-05-05T12:29:10.838Z,21.40
2023-05-05T12:31:39.264Z,21.30
2023-05-05T12:34:07.770Z,21.30
2023-05-05T12:36:35.790Z,20.80
2023-05-05T12:39:04.935Z,20.80
2023-05-05T12:41:33.003Z,20.60
2023-05-05T12:44:01.099Z,20.40
2023-05-05T12:46:32.005Z,20.20
2023-05-05T12:49:04.589Z,20.20
2023-05-05T12:51:35.969Z,20.00
2023-05-05T12:54:07.744Z,19.90
2023-05-05T12:56:47.205Z,19.50
2023-05-05T12:59:23.111Z,19.40
2023-05-05T13:01:52.038Z,19.60
2023-05-05T13:04:20.958Z,19.70
2023-05-05T13:06:49.944Z,19.60
2023-05-05T13:09:34.395Z,19.30
2023-05-05T13:12:03.064Z,19.20
2023-05-05T13:14:31.537Z,19.60
2023-05-05T13:16:58.358Z,19.90
2023-05-05T13:19:25.182Z,20.10
2023-05-05T13:21:52.559Z,20.50
2023-05-05T13:24:28.724Z,20.60
2023-05-05T13:27:02.913Z,20.20
2023-05-05T13:29:31.598Z,20.10
2023-05-05T13:31:58.520Z,20.20
2023-05-05T13:34:25.519Z,19.90
2023-05-05T13:36:52.290Z,19.80
2023-05-05T13:39:19.075Z,20.10
2023-05-05T13:41:45.818Z,19.90
2023-05-05T13:44:13.817Z,19.70
2023-05-05T13:46:41.868Z,19.30
2023-05-05T13:49:08.663Z,19.20
2023-05-05T13:51:35.483Z,19.10
2023-05-05T13:54:02.925Z,19.40
2023-05-05T13:56:29.843Z,19.60
2023-05-05T13:58:56.540Z,19.80
2023-05-05T14:01:23.370Z,19.70
2023-05-05T14:03:50.231Z,19.50
2023-05-05T14:06:17.116Z,19.50
2023-05-05T14:08:43.811Z,19.70
2023-05-05T14:11:10.641Z,19.60
2023-05-05T14:13:37.346Z,19.70
2023-05-05T14:16:04.228Z,19.60
2023-05-05T14:18:31.016Z,20.10
2023-05-05T14:20:57.667Z,20.80
2023-05-05T14:23:24.343Z,21.10
2023-05-05T14:25:51.115Z,21.30
2023-05-05T14:28:17.787Z,21.40
2023-05-05T14:30:44.464Z,21.40
2023-05-05T14:33:11.180Z,21.10
2023-05-05T14:35:38.006Z,20.90
2023-05-05T14:38:04.769Z,20.40
2023-05-05T14:40:31.560Z,20.60
2023-05-05T14:42:58.255Z,20.80
2023-05-05T14:45:25.018Z,20.90
2023-05-05T14:47:51.809Z,20.90
2023-05-05T14:50:18.598Z,20.70
2023-05-05T14:52:45.294Z,20.70
2023-05-05T14:55:12.059Z,20.60
2023-05-05T14:57:38.914Z,20.40
2023-05-05T15:00:07.074Z,20.20
2023-05-05T15:02:33.911Z,19.90
2023-05-05T15:05:00.762Z,19.80
2023-05-05T15:07:30.648Z,19.50
2023-05-05T15:09:57.416Z,19.30
2023-05-05T15:12:24.253Z,19.20
2023-05-05T15:14:50.951Z,19.00
2023-05-05T15:17:17.636Z,18.80
2023-05-05T15:19:44.416Z,18.60
2023-05-05T15:22:11.121Z,18.50
2023-05-05T15:24:37.951Z,18.30
2023-05-05T15:27:04.647Z,18.20
2023-05-05T15:29:31.288Z,18.10
2023-05-05T15:31:58.030Z,18.00
2023-05-05T15:34:24.900Z,17.90
2023-05-05T15:36:51.776Z,17.70
2023-05-05T15:39:18.766Z,17.60
2023-05-05T15:41:45.596Z,17.60
2023-05-05T15:44:12.552Z,17.50
2023-05-05T15:46:39.762Z,17.40
2023-05-05T15:49:06.703Z,17.20
2023-05-05T15:51:33.598Z,17.20
2023-05-05T15:54:00.331Z,17.00
2023-05-05T15:56:27.507Z,16.90
2023-05-05T15:58:54.309Z,16.70
2023-05-05T16:01:21.200Z,16.50
2023-05-05T16:03:47.882Z,16.00
2023-05-05T16:06:14.523Z,15.70
2023-05-05T16:08:41.403Z,15.50
2023-05-05T16:11:08.049Z,15.50
2023-05-05T16:13:34.800Z,15.30
2023-05-05T16:16:01.711Z,15.20
2023-05-05T16:18:28.462Z,15.10
2023-05-05T16:20:55.147Z,15.10
2023-05-05T16:23:21.788Z,15.10
2023-05-05T16:25:48.484Z,15.10
2023-05-05T16:28:15.208Z,15.00
2023-05-05T16:30:43.079Z,14.90
2023-05-05T16:33:10.112Z,14.90
2023-05-05T16:35:36.859Z,14.90
2023-05-05T16:38:03.664Z,15.00
2023-05-05T16:40:30.449Z,15.10
2023-05-05T16:42:57.111Z,15.30
2023-05-05T16:45:24.318Z,15.50
2023-05-05T16:47:51.264Z,15.60
2023-05-05T16:50:18.066Z,15.70
2023-05-05T16:52:44.724Z,15.80
2023-05-05T16:55:11.546Z,15.80
2023-05-05T16:57:38.585Z,16.00
2023-05-05T17:00:12.109Z,16.30
2023-05-05T17:02:38.857Z,16.40
2023-05-05T17:05:06.341Z,16.50
2023-05-05T17:07:33.085Z,16.60
2023-05-05T17:09:59.903Z,16.60
2023-05-05T17:12:26.583Z,16.40
2023-05-05T17:14:53.291Z,16.40
2023-05-05T17:17:19.990Z,16.40
2023-05-05T17:19:46.881Z,16.30
2023-05-05T17:22:13.608Z,16.00
2023-05-05T17:24:40.266Z,15.80
2023-05-05T17:27:07.137Z,15.70
2023-05-05T17:29:36.848Z,15.60
2023-05-05T17:32:03.819Z,15.50
2023-05-05T17:34:33.618Z,15.40
2023-05-05T17:37:00.777Z,15.50
2023-05-05T17:39:27.540Z,15.40
2023-05-05T17:41:54.299Z,15.40
2023-05-05T17:44:21.241Z,15.30
2023-05-05T17:46:47.989Z,15.20
2023-05-05T17:49:14.725Z,15.10
2023-05-05T17:51:41.369Z,15.10
2023-05-05T17:54:08.012Z,14.90
2023-05-05T17:56:36.645Z,15.00
2023-05-05T17:59:03.369Z,14.90
2023-05-05T18:01:30.204Z,14.90
2023-05-05T18:03:57.521Z,14.90
2023-05-05T18:06:24.566Z,14.80
2023-05-05T18:08:51.375Z,14.80
2023-05-05T18:11:19.338Z,14.80
2023-05-05T18:13:46.150Z,14.70
2023-05-05T18:16:12.916Z,14.70
2023-05-05T18:18:41.187Z,14.70
2023-05-05T18:21:11.934Z,14.60
2023-05-05T18:23:39.877Z,14.60
2023-05-05T18:26:07.221Z,14.60
2023-05-05T18:28:33.919Z,14.60
2023-05-05T18:31:00.577Z,14.60
2023-05-05T18:33:27.293Z,14.50
2023-05-05T18:35:54.038Z,14.50
2023-05-05T18:38:21.477Z,14.40
2023-05-05T18:40:48.300Z,14.40
2023-05-05T18:43:14.976Z,14.30
2023-05-05T18:45:41.878Z,14.20
2023-05-05T18:48:08.748Z,14.20
2023-05-05T18:50:37.141Z,14.10
2023-05-05T18:53:03.846Z,14.10
2023-05-05T18:55:30.522Z,14.10
2023-05-05T18:57:57.266Z,14.10
2023-05-05T19:00:24.413Z,14.00
2023-05-05T19:02:51.331Z,14.00
2023-05-05T19:05:18.273Z,14.00
2023-05-05T19:07:45.442Z,13.90
2023-05-05T19:10:12.189Z,13.90
2023-05-05T19:12:39.125Z,14.00
2023-05-05T19:15:06.873Z,13.90
2023-05-05T19:17:33.896Z,13.90
2023-05-05T19:20:00.718Z,13.90
2023-05-05T19:22:27.478Z,13.90
2023-05-05T19:24:54.156Z,13.80
2023-05-05T19:27:21.510Z,13.80
2023-05-05T19:29:52.117Z,13.80
2023-05-05T19:32:19.584Z,13.80
2023-05-05T19:34:46.570Z,13.80
2023-05-05T19:37:13.317Z,13.80
2023-05-05T19:39:40.131Z,13.80
2023-05-05T19:42:07.373Z,13.80
2023-05-05T19:44:34.035Z,13.80
2023-05-05T19:47:00.975Z,13.80
2023-05-05T19:49:27.718Z,13.90
2023-05-05T19:51:54.516Z,13.80
2023-05-05T19:54:21.475Z,13.80
2023-05-05T19:56:48.144Z,13.90
2023-05-05T19:59:14.939Z,13.90
2023-05-05T20:01:41.764Z,13.90
2023-05-05T20:04:08.708Z,13.80
2023-05-05T20:06:36.307Z,13.80
2023-05-05T20:09:03.706Z,13.70
2023-05-05T20:11:31.138Z,13.60
2023-05-05T20:13:58.370Z,13.50
2023-05-05T20:16:25.126Z,13.50
2023-05-05T20:18:51.817Z,13.50
2023-05-05T20:21:18.509Z,13.50
2023-05-05T20:23:46.241Z,13.50
2023-05-05T20:26:13.661Z,13.50
2023-05-05T20:28:42.553Z,13.50
2023-05-05T20:31:11.306Z,13.50
2023-05-05T20:33:37.973Z,13.50
2023-05-05T20:36:05.139Z,13.60
2023-05-05T20:38:31.912Z,13.50
2023-05-05T20:40:58.796Z,13.50
2023-05-05T20:43:25.587Z,13.50
2023-05-05T20:45:52.338Z,13.50
2023-05-05T20:48:19.081Z,13.50
2023-05-05T20:50:45.793Z,13.40
2023-05-05T20:53:16.087Z,13.40
2023-05-05T20:55:42.845Z,13.30
2023-05-05T20:58:09.565Z,13.30
2023-05-05T21:00:36.475Z,13.30
2023-05-05T21:03:04.314Z,13.30
2023-05-05T21:05:31.666Z,13.30
2023-05-05T21:07:59.974Z,13.30
2023-05-05T21:10:28.684Z,13.30
2023-05-05T21:12:55.437Z,13.20
2023-05-05T21:15:22.158Z,13.20
2023-05-05T21:17:48.980Z,13.20
2023-05-05T21:20:16.506Z,13.20
2023-05-05T21:22:43.274Z,13.20
2023-05-05T21:25:18.264Z,13.30
2023-05-05T21:27:46.364Z,13.20
2023-05-05T21:30:13.569Z,13.30
2023-05-05T21:32:40.787Z,13.30
2023-05-05T21:35:08.769Z,13.30
2023-05-05T21:37:37.342Z,13.30
2023-05-05T21:40:04.758Z,13.40
2023-05-05T21:42:31.571Z,13.30
2023-05-05T21:44:58.192Z,13.40
2023-05-05T21:47:24.939Z,13.30
2023-05-05T21:49:51.657Z,13.30
2023-05-05T21:52:18.311Z,13.30
2023-05-05T21:54:45.139Z,13.30
2023-05-05T21:57:11.803Z,13.40
2023-05-05T21:59:38.495Z,13.30
2023-05-05T22:02:05.221Z,13.30
2023-05-05T22:04:31.886Z,13.30
2023-05-05T22:06:58.555Z,13.20
2023-05-05T22:09:25.307Z,13.20
2023-05-05T22:11:52.054Z,13.10
2023-05-05T22:14:18.843Z,13.00
2023-05-05T22:16:45.592Z,13.00
2023-05-05T22:19:12.425Z,12.90
2023-05-05T22:21:39.116Z,12.90
2023-05-05T22:24:07.192Z,12.90
2023-05-05T22:26:34.035Z,12.80
2023-05-05T22:29:00.990Z,12.90
2023-05-05T22:31:27.852Z,12.90
2023-05-05T22:33:54.673Z,12.90
2023-05-05T22:36:21.776Z,12.90
2023-05-05T22:38:48.484Z,12.90
2023-05-05T22:41:15.988Z,12.90
2023-05-05T22:43:42.664Z,12.90
2023-05-05T22:46:09.842Z,12.90
2023-05-05T22:48:36.672Z,13.00
2023-05-05T22:51:03.767Z,12.90
2023-05-05T22:53:30.427Z,12.90
2023-05-05T22:55:58.459Z,12.90
2023-05-05T22:58:25.754Z,12.90
2023-05-05T23:00:52.491Z,12.90
2023-05-05T23:03:19.247Z,12.90
2023-05-05T23:05:45.960Z,12.90
2023-05-05T23:08:12.616Z,12.90
2023-05-05T23:10:39.272Z,12.90
2023-05-05T23:13:05.995Z,12.90
2023-05-05T23:15:32.746Z,12.80
2023-05-05T23:17:59.474Z,12.80
2023-05-05T23:20:26.270Z,12.80
2023-05-05T23:22:53.303Z,12.70
2023-05-05T23:25:19.967Z,12.70
2023-05-05T23:27:46.643Z,12.60
2023-05-05T23:30:13.722Z,12.60
2023-05-05T23:32:40.545Z,12.50
2023-05-05T23:35:08.095Z,12.40
2023-05-05T23:37:35.142Z,12.30
2023-05-05T23:40:01.802Z,12.20
2023-05-05T23:42:28.533Z,12.10
2023-05-05T23:44:55.200Z,12.00
2023-05-05T23:47:21.874Z,11.90
2023-05-05T23:49:48.519Z,11.90
2023-05-05T23:52:15.368Z,11.80
2023-05-05T23:54:42.149Z,11.80
2023-05-05T23:57:08.793Z,11.80
2023-05-05T23:59:35.531Z,11.70
